Portada
METAR-TAF:

METAR-TAF

Aeropuertos :

Coles County Memorial Airport

Mattoon / Charleston, Illinois, Estados Unidos

latitud: 39-28-41N, longitud: 088-16-45W, altitud: 220 m

Observación

El informe se hizo hace 13 minutos, a las 15:53 UTC
Viento 6 kt del noreste
Temperatura 30°C
Humedad 55%
Presión 1017 hPa
Visibilidad: 16.1 km
Cielo despejado

METAR: KMTO 041553Z AUTO 05006KT 10SM CLR 30/20 A3003 RMK AO2 SLP160 T03000200

Hora: 11:06 (16:06 UTC)


TAF: falta

Observaciones y pronósticos meteorológicos de más de 4000 aeropuertos (mensajes METAR y TAF).

Los puntos amarillos y rojos representan las estaciones disponibles.

Ponga el ratón en el punto deseado para ver el nombre de la estación.

Haga clic para ver las observaciones y los pronósticos meteorológicos.

Para cambiar el mapa : haga clic en los botones verdes con una cruz de color negro para hacer un zoom, en el botón verde con un guión para alejar o en las flechas verdes para mapas adyacentes.


METAR-TAF: